Time;durP1;ratioP1;P1;durP2;ratioP2;P2;SDS_P1;SDS_P2;PMS_P1;PMS_P2;Temp;Humidity;BMP_temperature;BMP_pressure;BME280_temperature;BME280_humidity;BME280_pressure;Samples;Min_cycle;Max_cycle;Signal;HPM_P1;HPM_P2
2021/05/07 00:01:39;;;;;;;2.60;1.40;;;9.30;99.90;;;;;;6247976;28;20164;-76
2021/05/07 00:04:40;;;;;;;1.75;1.65;;;9.30;99.90;;;;;;6247682;28;20422;-76
2021/05/07 00:07:41;;;;;;;1.70;1.60;;;9.30;99.90;;;;;;6248302;28;20140;-76
2021/05/07 00:10:43;;;;;;;4.82;1.75;;;9.20;99.90;;;;;;6247213;28;20441;-76
2021/05/07 00:13:47;;;;;;;3.20;1.70;;;9.20;99.90;;;;;;6247620;28;20128;-76
2021/05/07 00:16:48;;;;;;;2.38;1.73;;;9.10;99.90;;;;;;6247300;28;20099;-77
2021/05/07 00:19:49;;;;;;;1.60;1.50;;;9.10;99.90;;;;;;6247257;28;20076;-77
2021/05/07 00:22:51;;;;;;;2.00;1.90;;;9.00;99.90;;;;;;6252937;28;20532;-76
2021/05/07 00:25:53;;;;;;;1.92;1.75;;;9.00;99.90;;;;;;6272219;28;20068;-76
2021/05/07 00:28:54;;;;;;;1.83;1.70;;;9.00;99.90;;;;;;6272153;28;20052;-76
2021/05/07 00:31:55;;;;;;;1.40;1.30;;;8.90;99.90;;;;;;6271567;28;20509;-76
2021/05/07 00:34:57;;;;;;;2.05;1.75;;;8.90;99.90;;;;;;6272276;28;20053;-76
2021/05/07 00:37:58;;;;;;;3.22;1.77;;;8.80;99.90;;;;;;6271870;28;20127;-76
2021/05/07 00:41:00;;;;;;;3.47;2.78;;;8.80;99.90;;;;;;6271398;28;20136;-76
2021/05/07 00:44:02;;;;;;;1.88;1.77;;;8.80;99.90;;;;;;6271600;28;20517;-76
2021/05/07 00:47:04;;;;;;;2.00;1.88;;;8.70;99.90;;;;;;6271182;28;20529;-76
2021/05/07 00:50:07;;;;;;;2.95;2.40;;;8.70;99.90;;;;;;6271204;28;20072;-76
2021/05/07 00:53:08;;;;;;;2.38;1.75;;;8.70;99.90;;;;;;6271639;28;20123;-76
2021/05/07 00:56:11;;;;;;;2.35;2.15;;;8.60;99.90;;;;;;6271241;28;20127;-76
2021/05/07 00:59:12;;;;;;;2.40;2.20;;;8.70;99.90;;;;;;6271518;28;20099;-76
2021/05/07 01:02:13;;;;;;;2.28;2.08;;;8.60;99.90;;;;;;6271066;28;20514;-77
2021/05/07 01:05:15;;;;;;;2.35;2.15;;;8.50;99.90;;;;;;6271291;28;20135;-76
2021/05/07 01:08:18;;;;;;;2.63;1.92;;;8.40;99.90;;;;;;6270848;28;20545;-76
2021/05/07 01:11:21;;;;;;;2.80;2.60;;;8.40;99.90;;;;;;6271579;28;20049;-76
2021/05/07 01:14:22;;;;;;;4.88;4.30;;;8.30;99.90;;;;;;6270792;28;20128;-76
2021/05/07 01:17:23;;;;;;;4.45;2.58;;;8.30;99.90;;;;;;6271013;28;20085;-76
2021/05/07 01:20:27;;;;;;;3.10;2.80;;;8.30;99.90;;;;;;6270683;28;20071;-76
2021/05/07 01:23:28;;;;;;;3.25;2.97;;;8.30;99.90;;;;;;6271139;28;20073;-76
2021/05/07 01:26:30;;;;;;;2.75;2.55;;;8.30;99.90;;;;;;6270704;28;20561;-77
2021/05/07 01:29:31;;;;;;;3.28;2.58;;;8.30;99.90;;;;;;6270381;28;20068;-77
2021/05/07 01:32:32;;;;;;;4.18;2.90;;;8.30;99.90;;;;;;6270736;28;20174;-76
2021/05/07 01:35:35;;;;;;;3.00;2.75;;;8.30;99.90;;;;;;6271370;28;20088;-76
2021/05/07 01:38:37;;;;;;;2.80;2.45;;;8.30;99.90;;;;;;6270479;28;20132;-76
2021/05/07 01:41:38;;;;;;;5.20;2.78;;;8.30;99.90;;;;;;6270573;28;20056;-76
2021/05/07 01:44:39;;;;;;;4.93;2.60;;;8.20;99.90;;;;;;6270749;28;20033;-75
2021/05/07 01:47:41;;;;;;;4.55;3.53;;;8.20;99.90;;;;;;6271053;28;20060;-76
2021/05/07 01:50:45;;;;;;;4.32;3.40;;;8.20;99.90;;;;;;6269951;28;20055;-76
2021/05/07 01:53:47;;;;;;;3.40;3.10;;;8.30;99.90;;;;;;6270489;28;20128;-76
2021/05/07 01:56:48;;;;;;;3.67;3.03;;;8.20;99.90;;;;;;6270278;28;20518;-76
2021/05/07 01:59:49;;;;;;;3.60;3.08;;;8.20;99.90;;;;;;6274349;28;20123;-76
2021/05/07 02:02:52;;;;;;;5.05;3.00;;;8.20;99.90;;;;;;6275481;28;20084;-76
2021/05/07 02:05:54;;;;;;;3.17;2.88;;;8.20;99.90;;;;;;6275219;28;20044;-76
2021/05/07 02:08:55;;;;;;;3.70;3.33;;;8.20;99.90;;;;;;6274691;28;20506;-76
2021/05/07 02:11:57;;;;;;;6.30;2.88;;;8.20;99.90;;;;;;6275308;28;20152;-76
2021/05/07 02:14:58;;;;;;;6.90;3.17;;;8.20;99.90;;;;;;6275363;28;20132;-76
2021/05/07 02:18:00;;;;;;;3.85;3.30;;;8.20;99.90;;;;;;6275102;28;20044;-75
2021/05/07 02:21:02;;;;;;;3.92;3.30;;;8.20;99.90;;;;;;6274626;28;20076;-76
2021/05/07 02:24:04;;;;;;;8.90;3.92;;;8.20;99.90;;;;;;6274597;28;20400;-76
2021/05/07 02:27:06;;;;;;;3.88;3.50;;;8.20;99.90;;;;;;6275169;28;20553;-76
2021/05/07 02:30:10;;;;;;;5.00;3.45;;;8.20;99.90;;;;;;6274471;28;20514;-76
2021/05/07 02:33:11;;;;;;;9.27;3.50;;;8.20;99.90;;;;;;6274848;28;20073;-76
2021/05/07 02:36:13;;;;;;;4.78;4.20;;;8.20;99.90;;;;;;6274377;28;20118;-76
2021/05/07 02:39:16;;;;;;;6.60;3.83;;;8.20;99.90;;;;;;6274597;28;20418;-76
2021/05/07 02:42:17;;;;;;;4.03;3.30;;;8.20;99.90;;;;;;6274201;28;20068;-76
2021/05/07 02:45:19;;;;;;;4.97;4.07;;;8.20;99.90;;;;;;6274512;28;20183;-76
2021/05/07 02:48:20;;;;;;;5.43;4.80;;;8.20;99.90;;;;;;6274520;28;20080;-76
2021/05/07 02:51:22;;;;;;;6.65;4.65;;;8.20;99.90;;;;;;6274497;28;20136;-76
2021/05/07 02:54:23;;;;;;;8.52;4.47;;;8.20;99.90;;;;;;6273879;28;20072;-76
2021/05/07 02:57:25;;;;;;;7.10;4.97;;;8.20;99.90;;;;;;6274273;28;20048;-76
2021/05/07 03:00:26;;;;;;;5.22;4.70;;;8.20;99.90;;;;;;6273789;28;20110;-76
2021/05/07 03:03:27;;;;;;;6.22;5.28;;;8.20;99.90;;;;;;6274323;28;20525;-76
2021/05/07 03:06:29;;;;;;;5.13;4.63;;;8.20;99.90;;;;;;6273931;28;20128;-76
2021/05/07 03:09:31;;;;;;;7.63;4.22;;;8.20;99.90;;;;;;6273173;28;20110;-77
2021/05/07 03:12:32;;;;;;;5.80;4.13;;;8.10;99.90;;;;;;6273846;28;20036;-76
2021/05/07 03:15:33;;;;;;;5.95;4.47;;;8.00;99.90;;;;;;6274306;28;20091;-76
2021/05/07 03:18:35;;;;;;;6.80;4.55;;;8.00;99.90;;;;;;6273382;28;20586;-77
2021/05/07 03:21:37;;;;;;;7.35;4.63;;;8.00;99.90;;;;;;6273450;28;20095;-76
2021/05/07 03:24:39;;;;;;;8.02;5.72;;;8.00;99.90;;;;;;6252307;22;20066;-75
2021/05/07 03:27:40;;;;;;;7.30;5.43;;;8.00;99.90;;;;;;6224895;28;20121;-75
2021/05/07 03:30:41;;;;;;;11.48;5.35;;;7.90;99.90;;;;;;6224034;28;20103;-75
2021/05/07 03:33:44;;;;;;;8.43;5.20;;;7.90;99.90;;;;;;6223999;28;20069;-75
2021/05/07 03:36:46;;;;;;;10.25;5.07;;;7.90;99.90;;;;;;6224281;28;20053;-75
2021/05/07 03:39:47;;;;;;;8.05;5.40;;;7.90;99.90;;;;;;6223778;28;20064;-75
2021/05/07 03:42:49;;;;;;;9.70;5.97;;;7.90;99.90;;;;;;6224035;28;20073;-76
2021/05/07 03:45:50;;;;;;;13.05;6.10;;;7.80;99.90;;;;;;6224044;28;20685;-76
2021/05/07 03:48:51;;;;;;;12.88;6.60;;;7.90;99.90;;;;;;6223423;28;20144;-76
2021/05/07 03:51:53;;;;;;;6.63;5.20;;;7.80;99.90;;;;;;6223793;28;20510;-75
2021/05/07 03:54:55;;;;;;;10.35;6.00;;;7.80;99.90;;;;;;6223997;28;20057;-76
2021/05/07 03:57:56;;;;;;;9.48;6.03;;;7.80;99.90;;;;;;6223708;28;20132;-76
2021/05/07 04:00:57;;;;;;;8.95;6.32;;;7.80;99.90;;;;;;6223124;28;20537;-76
2021/05/07 04:04:00;;;;;;;8.70;5.78;;;7.80;99.90;;;;;;6223637;28;20049;-75
2021/05/07 04:07:02;;;;;;;10.52;6.53;;;7.80;99.90;;;;;;6223833;28;20177;-75
2021/05/07 04:10:07;;;;;;;8.07;6.68;;;7.80;99.90;;;;;;6223064;28;20128;-75
2021/05/07 04:16:28;;;;;;;12.88;7.68;;;7.70;99.90;;;;;;6223588;28;20507;-75
2021/05/07 04:19:30;;;;;;;9.57;6.43;;;7.70;99.90;;;;;;6223345;28;20104;-75
2021/05/07 04:22:32;;;;;;;9.93;6.90;;;7.70;99.90;;;;;;6221913;28;20046;-76
2021/05/07 04:25:33;;;;;;;14.23;7.07;;;7.70;99.90;;;;;;6222977;28;20172;-76
2021/05/07 04:28:35;;;;;;;13.90;8.15;;;7.70;99.90;;;;;;6222558;28;20526;-75
2021/05/07 04:31:36;;;;;;;10.77;7.30;;;7.70;99.90;;;;;;6223480;28;20068;-75
2021/05/07 04:34:37;;;;;;;11.38;8.05;;;7.70;99.90;;;;;;6222704;28;20061;-75
2021/05/07 04:37:39;;;;;;;14.35;9.40;;;7.70;99.90;;;;;;6223537;28;20042;-76
2021/05/07 04:40:41;;;;;;;11.82;8.30;;;7.70;99.90;;;;;;6222743;28;20534;-75
2021/05/07 04:43:42;;;;;;;14.82;8.48;;;7.70;99.90;;;;;;6223119;28;20049;-75
2021/05/07 04:46:43;;;;;;;13.80;9.00;;;7.70;99.90;;;;;;6222542;28;20046;-75
2021/05/07 04:49:45;;;;;;;13.27;7.78;;;7.70;99.90;;;;;;6222273;28;20129;-76
2021/05/07 04:52:47;;;;;;;14.68;8.90;;;7.80;99.90;;;;;;6222459;28;20124;-75
2021/05/07 04:55:48;;;;;;;14.10;8.68;;;7.80;99.90;;;;;;6225338;28;20076;-76
2021/05/07 04:58:50;;;;;;;11.35;7.75;;;7.80;99.90;;;;;;6238399;28;20065;-75
2021/05/07 05:01:51;;;;;;;15.07;8.80;;;7.80;99.90;;;;;;6222383;28;20129;-75
2021/05/07 05:04:52;;;;;;;13.32;9.98;;;7.80;99.90;;;;;;6222195;28;20093;-75
2021/05/07 05:07:56;;;;;;;22.17;10.15;;;7.80;99.90;;;;;;6222067;28;20188;-74
2021/05/07 05:10:58;;;;;;;14.57;9.73;;;7.90;99.90;;;;;;6222190;28;20447;-75
2021/05/07 05:14:00;;;;;;;17.05;10.30;;;7.90;99.90;;;;;;6221848;28;20129;-75
2021/05/07 05:17:01;;;;;;;14.70;10.15;;;8.00;99.90;;;;;;6221844;28;20080;-75
2021/05/07 05:20:05;;;;;;;15.93;10.20;;;8.00;99.90;;;;;;6221389;28;20510;-75
2021/05/07 05:23:07;;;;;;;14.95;9.93;;;8.00;99.90;;;;;;6222223;28;20132;-76
2021/05/07 05:26:09;;;;;;;15.40;10.07;;;8.00;99.90;;;;;;6221697;28;20104;-76
2021/05/07 05:29:12;;;;;;;15.10;9.13;;;8.00;99.90;;;;;;6221441;28;20050;-76
2021/05/07 05:32:13;;;;;;;18.55;11.02;;;8.00;99.90;;;;;;6218989;28;20046;-76
2021/05/07 05:35:15;;;;;;;18.08;10.43;;;8.00;99.90;;;;;;6220709;28;20088;-75
2021/05/07 05:38:17;;;;;;;19.80;11.75;;;8.10;99.90;;;;;;6222034;28;20053;-77
2021/05/07 05:41:18;;;;;;;20.15;12.48;;;8.20;99.90;;;;;;6221229;28;20041;-75
2021/05/07 05:44:20;;;;;;;21.35;13.65;;;8.20;99.90;;;;;;6221777;28;20080;-76
2021/05/07 05:47:21;;;;;;;16.90;9.82;;;8.20;99.90;;;;;;6219223;28;20823;-75
2021/05/07 05:50:22;;;;;;;18.38;11.32;;;8.30;99.90;;;;;;6221314;28;20463;-75
2021/05/07 05:53:24;;;;;;;16.63;11.65;;;8.30;99.90;;;;;;6221748;28;20576;-75
2021/05/07 05:56:26;;;;;;;19.45;11.88;;;8.40;99.90;;;;;;6221842;28;20045;-75
2021/05/07 05:59:27;;;;;;;14.80;10.77;;;8.40;99.90;;;;;;6221545;28;20140;-75
2021/05/07 06:02:28;;;;;;;14.63;10.02;;;8.40;99.90;;;;;;6220707;28;20483;-75
2021/05/07 06:05:30;;;;;;;19.67;13.73;;;8.50;99.90;;;;;;6208853;28;20049;-75
2021/05/07 06:08:33;;;;;;;13.35;9.90;;;8.50;99.90;;;;;;6203021;28;20050;-75
2021/05/07 06:11:34;;;;;;;15.30;11.05;;;8.60;99.90;;;;;;6221347;28;20052;-75
2021/05/07 06:14:36;;;;;;;11.18;8.95;;;8.80;99.90;;;;;;6204844;28;20101;-75
2021/05/07 06:17:38;;;;;;;14.25;9.93;;;9.20;99.90;;;;;;6196922;28;20125;-75
2021/05/07 06:20:39;;;;;;;13.10;10.80;;;9.40;99.90;;;;;;6196370;28;20170;-75
2021/05/07 06:23:41;;;;;;;11.48;9.55;;;9.80;99.90;;;;;;6217354;28;20136;-75
2021/05/07 06:26:42;;;;;;;14.90;10.38;;;10.20;99.90;;;;;;6220759;28;20113;-75
2021/05/07 06:29:44;;;;;;;8.50;6.80;;;10.70;99.90;;;;;;6220553;28;20056;-75
2021/05/07 06:32:45;;;;;;;7.72;6.85;;;11.10;99.90;;;;;;6220804;28;20557;-75
2021/05/07 06:35:46;;;;;;;13.60;10.63;;;11.40;99.90;;;;;;6210820;28;20396;-76
2021/05/07 06:38:49;;;;;;;7.68;6.90;;;11.70;99.90;;;;;;6216412;28;20140;-74
2021/05/07 06:41:50;;;;;;;9.48;7.72;;;12.00;99.90;;;;;;6196302;28;20197;-75
2021/05/07 06:44:51;;;;;;;7.18;6.45;;;12.00;99.90;;;;;;6196850;28;20130;-75
2021/05/07 06:47:52;;;;;;;12.10;8.80;;;12.00;99.90;;;;;;6200625;28;20576;-75
2021/05/07 06:50:54;;;;;;;8.73;7.93;;;11.60;99.90;;;;;;6200950;28;20141;-75
2021/05/07 06:53:56;;;;;;;9.38;7.32;;;11.20;99.90;;;;;;6200387;28;20042;-75
2021/05/07 06:56:59;;;;;;;9.70;7.60;;;11.40;99.90;;;;;;6200262;28;20573;-75
2021/05/07 07:00:01;;;;;;;10.65;7.85;;;11.80;99.90;;;;;;6200305;28;20046;-75
2021/05/07 07:03:02;;;;;;;10.77;8.82;;;11.90;99.90;;;;;;6200803;28;20125;-75
2021/05/07 07:06:03;;;;;;;9.30;8.35;;;11.80;99.30;;;;;;6201762;28;20128;-74
2021/05/07 07:09:06;;;;;;;9.02;7.93;;;12.30;99.80;;;;;;6200821;28;20490;-76
2021/05/07 07:12:08;;;;;;;11.18;8.98;;;12.40;95.80;;;;;;6200359;28;20070;-75
2021/05/07 07:15:11;;;;;;;10.20;7.57;;;12.40;96.40;;;;;;6222756;28;20050;-75
2021/05/07 07:18:17;;;;;;;8.10;7.32;;;12.70;95.80;;;;;;6224484;28;20045;-75
2021/05/07 07:21:19;;;;;;;8.55;6.75;;;12.80;94.20;;;;;;6224181;28;20495;-75
2021/05/07 07:24:21;;;;;;;9.20;8.32;;;12.90;93.00;;;;;;6223829;28;20396;-75
2021/05/07 07:27:22;;;;;;;7.38;6.68;;;12.90;92.80;;;;;;6224825;28;20164;-76
2021/05/07 07:30:23;;;;;;;10.57;8.25;;;12.70;91.80;;;;;;6224025;28;20132;-76
2021/05/07 07:33:25;;;;;;;8.52;6.93;;;12.60;91.30;;;;;;6224189;28;20042;-76
2021/05/07 07:36:26;;;;;;;6.43;5.82;;;12.70;91.60;;;;;;6219768;28;20038;-76
2021/05/07 07:39:28;;;;;;;6.35;4.43;;;13.00;90.70;;;;;;6223858;28;20103;-75
2021/05/07 07:42:29;;;;;;;6.57;5.90;;;13.20;84.60;;;;;;6223885;28;20235;-75
2021/05/07 07:45:31;;;;;;;7.05;4.63;;;13.30;79.20;;;;;;6223670;28;20132;-75
2021/05/07 07:48:32;;;;;;;5.75;4.88;;;13.60;78.00;;;;;;6223431;28;20460;-75
2021/05/07 07:51:34;;;;;;;6.07;5.32;;;13.90;75.10;;;;;;6223431;28;20491;-75
2021/05/07 07:54:38;;;;;;;5.30;4.82;;;14.20;74.50;;;;;;6222857;28;20096;-75
2021/05/07 07:57:41;;;;;;;11.13;5.40;;;14.80;73.40;;;;;;6223449;28;20123;-75
2021/05/07 08:00:43;;;;;;;8.05;5.40;;;15.00;67.50;;;;;;6223238;28;20046;-75
2021/05/07 08:03:44;;;;;;;7.00;4.80;;;14.90;66.60;;;;;;6223328;28;20052;-75
2021/05/07 08:06:45;;;;;;;5.90;5.32;;;14.90;66.90;;;;;;6223476;28;20188;-75
2021/05/07 08:09:48;;;;;;;4.85;4.45;;;15.10;65.70;;;;;;6222841;28;20070;-75
2021/05/07 08:12:49;;;;;;;3.95;3.63;;;15.30;64.30;;;;;;6223038;28;20038;-75
2021/05/07 08:15:50;;;;;;;6.07;4.22;;;15.30;64.10;;;;;;6222964;28;20053;-75
2021/05/07 08:18:51;;;;;;;7.65;4.82;;;15.00;63.10;;;;;;6223052;28;20153;-75
2021/05/07 08:21:53;;;;;;;6.18;5.65;;;14.70;61.90;;;;;;6223250;28;20066;-76
2021/05/07 08:24:55;;;;;;;5.78;5.22;;;14.70;62.80;;;;;;6222263;28;20081;-75
2021/05/07 08:27:57;;;;;;;7.55;5.47;;;15.00;62.00;;;;;;6222333;28;20054;-75
2021/05/07 08:30:58;;;;;;;6.38;5.75;;;15.10;61.20;;;;;;6222011;28;20085;-76
2021/05/07 08:33:59;;;;;;;5.72;5.00;;;15.20;62.60;;;;;;6222677;28;20129;-76
2021/05/07 08:37:01;;;;;;;4.72;4.32;;;14.80;60.30;;;;;;6218925;28;20057;-76
2021/05/07 08:40:05;;;;;;;4.68;3.90;;;14.50;60.30;;;;;;6200072;28;20663;-75
2021/05/07 08:43:10;;;;;;;5.45;4.45;;;14.40;60.70;;;;;;6198592;28;20408;-76
2021/05/07 08:46:12;;;;;;;7.20;5.03;;;14.50;59.30;;;;;;6197869;28;20043;-74
2021/05/07 08:49:18;;;;;;;5.25;4.20;;;14.60;58.60;;;;;;6197797;28;20046;-75
2021/05/07 08:52:19;;;;;;;4.82;4.00;;;14.60;58.10;;;;;;6198088;28;20050;-75
2021/05/07 08:55:22;;;;;;;5.13;4.63;;;14.80;58.30;;;;;;6198091;28;20051;-75
2021/05/07 08:58:23;;;;;;;3.95;3.55;;;14.90;58.20;;;;;;6197777;28;20116;-75
2021/05/07 09:01:25;;;;;;;4.22;3.83;;;15.30;56.60;;;;;;6197471;28;20186;-75
2021/05/07 09:04:26;;;;;;;4.40;3.80;;;15.70;54.40;;;;;;6197763;28;20069;-75
2021/05/07 09:07:29;;;;;;;3.90;3.50;;;15.70;54.20;;;;;;6197385;28;20057;-74
2021/05/07 09:10:36;;;;;;;4.03;3.42;;;15.90;53.00;;;;;;6197537;28;20047;-74
2021/05/07 09:13:37;;;;;;;7.82;4.05;;;16.50;53.40;;;;;;6207486;28;20392;-76
2021/05/07 09:16:52;;;;;;;4.15;2.90;;;16.90;51.30;;;;;;6222088;28;20504;-75
2021/05/07 09:20:09;;;;;;;3.85;3.47;;;17.30;51.40;;;;;;6221637;28;20062;-75
2021/05/07 09:23:12;;;;;;;5.57;3.00;;;17.60;50.00;;;;;;6221895;28;20539;-75
2021/05/07 09:26:15;;;;;;;5.57;3.47;;;17.50;48.10;;;;;;6222100;28;20503;-74
2021/05/07 09:29:24;;;;;;;4.45;3.35;;;17.80;46.10;;;;;;6221490;28;20050;-74
2021/05/07 09:32:33;;;;;;;3.38;2.60;;;18.30;47.20;;;;;;6221411;28;20046;-74
2021/05/07 09:35:35;;;;;;;5.40;3.60;;;18.70;45.70;;;;;;6222022;28;20142;-74
2021/05/07 09:38:36;;;;;;;4.75;3.38;;;19.10;46.10;;;;;;6213950;28;20471;-74
2021/05/07 09:41:43;;;;;;;2.78;2.40;;;19.40;45.30;;;;;;6221874;28;20072;-74
2021/05/07 09:44:44;;;;;;;4.60;2.90;;;19.60;45.80;;;;;;6221203;28;20516;-75
2021/05/07 09:47:48;;;;;;;3.13;2.83;;;19.40;44.60;;;;;;6221706;28;20427;-74
2021/05/07 09:50:50;;;;;;;5.40;3.45;;;19.20;44.10;;;;;;6221520;28;20053;-75
2021/05/07 09:53:52;;;;;;;6.03;3.75;;;18.60;43.00;;;;;;6221276;28;20049;-75
2021/05/07 09:56:55;;;;;;;6.10;3.47;;;18.70;44.10;;;;;;6221473;28;20069;-75
2021/05/07 09:59:57;;;;;;;5.35;3.10;;;18.80;44.20;;;;;;6222444;28;20046;-75
2021/05/07 10:02:58;;;;;;;3.97;3.45;;;18.80;42.10;;;;;;6223517;28;20184;-76
2021/05/07 10:06:02;;;;;;;5.68;3.88;;;18.70;42.00;;;;;;6225099;28;20054;-75
2021/05/07 10:09:05;;;;;;;3.67;3.00;;;18.60;42.70;;;;;;6221526;28;20049;-75
2021/05/07 10:12:09;;;;;;;5.63;3.30;;;18.60;44.00;;;;;;6221157;28;20514;-74
2021/05/07 10:15:12;;;;;;;3.38;3.05;;;18.40;41.80;;;;;;6221928;28;20500;-75
2021/05/07 10:18:25;;;;;;;4.88;3.42;;;18.10;42.40;;;;;;6220752;28;20571;-75
2021/05/07 10:21:35;;;;;;;4.07;3.33;;;17.80;43.10;;;;;;6224527;28;20129;-75
2021/05/07 10:24:37;;;;;;;5.43;3.17;;;17.40;43.60;;;;;;6225368;28;20046;-75
2021/05/07 10:27:45;;;;;;;4.18;3.63;;;17.40;43.40;;;;;;6226088;28;20054;-75
2021/05/07 10:30:47;;;;;;;4.25;3.63;;;17.80;43.00;;;;;;6225264;28;20065;-75
2021/05/07 10:33:57;;;;;;;6.00;3.38;;;17.90;42.10;;;;;;6225066;28;20084;-76
2021/05/07 10:37:10;;;;;;;5.22;3.92;;;17.90;42.00;;;;;;6225388;28;20507;-75
2021/05/07 10:40:23;;;;;;;8.63;4.00;;;18.10;41.10;;;;;;6217858;28;20084;-75
2021/05/07 10:43:35;;;;;;;5.53;3.30;;;18.30;41.10;;;;;;6225450;28;20046;-74
2021/05/07 10:46:37;;;;;;;6.38;4.68;;;18.30;41.40;;;;;;6225563;28;20456;-75
2021/05/07 10:49:39;;;;;;;3.15;2.55;;;18.10;40.60;;;;;;6224683;28;20049;-74
2021/05/07 10:52:41;;;;;;;3.92;3.35;;;18.20;40.40;;;;;;6225189;28;20596;-73
2021/05/07 10:55:42;;;;;;;6.75;2.88;;;18.30;39.40;;;;;;6225041;28;20050;-74
2021/05/07 10:58:44;;;;;;;3.00;2.78;;;18.10;39.20;;;;;;6224723;28;20114;-75
2021/05/07 11:01:57;;;;;;;4.00;3.10;;;18.00;39.00;;;;;;6224513;28;20125;-74
2021/05/07 11:05:01;;;;;;;4.57;2.90;;;17.80;38.70;;;;;;6224779;28;20046;-75
2021/05/07 11:08:05;;;;;;;3.00;2.60;;;17.60;38.30;;;;;;6224094;28;20172;-75
2021/05/07 11:11:07;;;;;;;5.32;3.00;;;17.40;39.30;;;;;;6224765;28;20092;-74
2021/05/07 11:14:12;;;;;;;3.60;3.17;;;17.50;38.00;;;;;;6224354;28;20042;-74
2021/05/07 11:17:17;;;;;;;3.35;3.05;;;;;;;;;;6224753;28;20056;-74
2021/05/07 11:20:18;;;;;;;5.63;3.58;;;17.70;37.30;;;;;;6224655;28;20129;-74
2021/05/07 11:23:19;;;;;;;3.22;2.60;;;18.00;38.00;;;;;;6224045;28;20518;-74
2021/05/07 11:26:21;;;;;;;3.25;2.08;;;18.30;38.40;;;;;;6224151;28;20073;-74
2021/05/07 11:29:32;;;;;;;3.88;3.13;;;18.60;37.50;;;;;;6223713;28;20073;-74
2021/05/07 11:32:33;;;;;;;3.28;2.40;;;18.30;36.30;;;;;;6223453;28;20095;-73
2021/05/07 11:35:34;;;;;;;4.45;2.92;;;17.60;37.40;;;;;;6224265;28;20132;-75
2021/05/07 11:38:37;;;;;;;4.22;2.97;;;17.10;40.20;;;;;;6223454;28;20097;-75
2021/05/07 11:41:43;;;;;;;3.47;3.03;;;16.50;45.00;;;;;;6206907;28;20747;-75
2021/05/07 11:44:49;;;;;;;4.13;2.72;;;16.30;44.80;;;;;;6199418;28;20054;-74
2021/05/07 11:47:51;;;;;;;3.85;2.72;;;16.40;45.30;;;;;;6199202;28;20555;-74
2021/05/07 11:50:52;;;;;;;5.07;4.38;;;16.50;42.80;;;;;;6199230;28;20419;-75
2021/05/07 11:53:57;;;;;;;3.20;2.90;;;16.50;44.10;;;;;;6199258;28;20073;-74
2021/05/07 11:56:58;;;;;;;2.70;2.15;;;16.60;42.80;;;;;;6199643;28;20125;-75
2021/05/07 12:00:01;;;;;;;5.00;3.05;;;16.70;42.90;;;;;;6198995;28;20050;-75
2021/05/07 12:03:03;;;;;;;3.85;2.85;;;16.80;42.60;;;;;;6199506;28;20508;-74
2021/05/07 12:06:16;;;;;;;3.75;2.15;;;16.90;41.90;;;;;;6198509;28;20065;-74
2021/05/07 12:09:17;;;;;;;4.38;3.50;;;17.10;42.10;;;;;;6197853;28;20046;-75
2021/05/07 12:12:18;;;;;;;5.00;2.20;;;17.30;41.30;;;;;;6198798;28;20516;-75
2021/05/07 12:15:23;;;;;;;3.45;3.03;;;17.40;41.50;;;;;;6223144;28;20129;-75
2021/05/07 12:18:25;;;;;;;3.72;2.63;;;17.40;40.10;;;;;;6223235;28;20050;-75
2021/05/07 12:21:26;;;;;;;4.28;2.10;;;17.30;41.40;;;;;;6222652;28;20046;-75
2021/05/07 12:24:29;;;;;;;3.58;2.50;;;16.80;42.00;;;;;;6222500;28;20557;-75
2021/05/07 12:27:30;;;;;;;3.92;2.30;;;16.40;41.80;;;;;;6222735;28;20142;-74
2021/05/07 12:30:33;;;;;;;2.72;2.35;;;16.10;43.60;;;;;;6222376;28;20411;-74
2021/05/07 12:33:36;;;;;;;4.72;2.95;;;15.60;45.10;;;;;;6222441;28;20054;-74
2021/05/07 12:36:37;;;;;;;3.15;2.00;;;15.10;47.00;;;;;;6222543;28;20577;-75
2021/05/07 12:39:38;;;;;;;3.63;2.25;;;14.70;47.80;;;;;;6222924;28;20096;-75
2021/05/07 12:42:40;;;;;;;1.90;1.80;;;14.90;48.30;;;;;;6214939;28;20085;-75
2021/05/07 12:45:47;;;;;;;2.42;2.22;;;15.10;49.40;;;;;;6222447;28;20133;-74
2021/05/07 12:48:49;;;;;;;4.40;2.33;;;15.00;48.70;;;;;;6222441;28;20042;-75
2021/05/07 12:51:51;;;;;;;4.00;2.17;;;15.10;48.50;;;;;;6222669;28;20081;-75
2021/05/07 12:54:52;;;;;;;87.65;52.22;;;15.10;52.00;;;;;;6222470;28;20077;-75
2021/05/07 12:57:53;;;;;;;7.25;6.55;;;15.30;49.80;;;;;;6222854;28;20124;-74
2021/05/07 13:00:56;;;;;;;4.43;4.13;;;15.30;46.20;;;;;;6221914;28;20136;-74
2021/05/07 13:03:57;;;;;;;2.28;1.52;;;15.50;46.20;;;;;;6223822;28;20161;-74
2021/05/07 13:06:58;;;;;;;2.33;2.13;;;15.80;44.50;;;;;;6231914;28;20152;-75
2021/05/07 13:10:00;;;;;;;4.15;1.83;;;16.10;39.70;;;;;;6222054;28;20128;-75
2021/05/07 13:13:02;;;;;;;2.33;1.52;;;16.10;37.70;;;;;;6222554;28;20176;-75
2021/05/07 13:16:04;;;;;;;1.95;1.52;;;16.20;36.50;;;;;;6222163;28;20499;-75
2021/05/07 13:19:06;;;;;;;3.35;2.40;;;16.40;36.20;;;;;;6222542;28;20046;-75
2021/05/07 13:22:07;;;;;;;1.70;1.60;;;16.60;35.00;;;;;;6221859;28;20065;-74
2021/05/07 13:25:09;;;;;;;3.10;2.65;;;16.40;34.90;;;;;;6221695;28;20104;-75
2021/05/07 13:28:11;;;;;;;3.40;2.10;;;16.60;36.00;;;;;;6221841;28;20076;-75
2021/05/07 13:31:13;;;;;;;4.50;2.45;;;17.20;34.90;;;;;;6222007;28;20081;-75
2021/05/07 13:34:15;;;;;;;4.65;3.28;;;17.60;34.90;;;;;;6221577;28;20176;-75
2021/05/07 13:37:17;;;;;;;3.83;3.38;;;17.90;34.60;;;;;;6221465;28;20042;-75
2021/05/07 13:40:20;;;;;;;3.35;2.65;;;18.10;34.50;;;;;;6221494;28;20046;-74
2021/05/07 13:43:23;;;;;;;3.95;1.95;;;18.10;33.00;;;;;;6212002;28;20510;-75
2021/05/07 13:46:25;;;;;;;3.28;1.60;;;18.10;32.50;;;;;;6221580;28;20120;-74
2021/05/07 13:49:27;;;;;;;2.92;2.60;;;18.00;32.50;;;;;;6221498;28;20129;-75
2021/05/07 13:52:31;;;;;;;3.00;1.70;;;18.10;33.30;;;;;;6221512;28;20504;-75
2021/05/07 13:55:32;;;;;;;3.28;1.60;;;18.30;32.60;;;;;;6225499;28;20049;-75
2021/05/07 13:58:33;;;;;;;4.68;2.38;;;18.20;33.20;;;;;;6226312;28;20381;-75
2021/05/07 14:01:36;;;;;;;35.33;31.77;;;18.10;32.20;;;;;;6226281;28;20082;-75
2021/05/07 14:04:37;;;;;;;13.82;12.48;;;;;;;;;;6227520;28;20065;-75
2021/05/07 14:07:39;;;;;;;5.43;2.88;;;17.80;32.90;;;;;;6227098;28;20140;-75
2021/05/07 14:10:40;;;;;;;4.40;3.75;;;17.70;33.30;;;;;;6226312;28;20053;-76
2021/05/07 14:13:41;;;;;;;5.40;3.15;;;17.60;33.40;;;;;;6226002;28;20128;-75
2021/05/07 14:16:46;;;;;;;3.10;1.90;;;17.70;33.10;;;;;;6226197;28;20066;-75
2021/05/07 14:19:47;;;;;;;3.58;2.25;;;17.80;32.90;;;;;;6225742;28;20050;-75
2021/05/07 14:22:50;;;;;;;3.70;1.83;;;18.10;33.90;;;;;;6226287;28;20064;-75
2021/05/07 14:25:51;;;;;;;3.20;2.17;;;18.30;32.30;;;;;;6225676;28;20049;-75
2021/05/07 14:28:53;;;;;;;3.60;3.25;;;18.20;32.30;;;;;;6225900;28;20049;-75
2021/05/07 14:31:55;;;;;;;3.13;2.17;;;18.00;33.20;;;;;;6225570;28;20487;-75
2021/05/07 14:34:57;;;;;;;3.30;1.85;;;17.90;33.10;;;;;;6225797;28;20049;-75
2021/05/07 14:37:58;;;;;;;3.35;1.67;;;17.80;31.70;;;;;;6225297;28;20530;-75
2021/05/07 14:41:00;;;;;;;3.00;1.50;;;17.80;33.10;;;;;;6225365;28;20129;-75
2021/05/07 14:44:01;;;;;;;5.80;1.95;;;17.80;32.30;;;;;;6218216;28;20050;-76
2021/05/07 14:47:04;;;;;;;2.25;1.70;;;17.80;31.70;;;;;;6225549;28;20430;-75
2021/05/07 14:50:08;;;;;;;2.33;1.25;;;17.60;32.40;;;;;;6224784;28;20045;-75
2021/05/07 14:53:11;;;;;;;1.98;1.20;;;17.50;32.80;;;;;;6224686;28;20134;-75
2021/05/07 14:56:12;;;;;;;2.60;1.42;;;17.50;32.90;;;;;;6225337;28;20037;-75
2021/05/07 14:59:13;;;;;;;2.45;1.20;;;17.70;33.90;;;;;;6224812;28;20503;-75
2021/05/07 15:02:16;;;;;;;3.47;1.58;;;18.00;33.10;;;;;;6225192;28;20096;-75
2021/05/07 15:05:17;;;;;;;2.08;1.38;;;18.10;32.00;;;;;;6223748;28;20119;-73
2021/05/07 15:08:21;;;;;;;2.63;1.63;;;18.00;32.10;;;;;;6224811;28;20048;-75
2021/05/07 15:11:22;;;;;;;2.88;1.45;;;17.70;32.60;;;;;;6224930;28;20061;-74
2021/05/07 15:14:23;;;;;;;4.38;1.23;;;17.60;32.50;;;;;;6224370;28;20125;-74
2021/05/07 15:17:25;;;;;;;1.85;1.40;;;17.70;33.30;;;;;;6224655;28;20396;-75
2021/05/07 15:20:27;;;;;;;1.98;1.40;;;17.70;33.10;;;;;;6224065;28;20056;-75
2021/05/07 15:23:28;;;;;;;1.70;1.60;;;17.60;32.20;;;;;;6225103;28;20054;-74
2021/05/07 15:26:30;;;;;;;2.13;1.83;;;17.40;32.60;;;;;;6241892;23;20433;-77
2021/05/07 15:29:31;;;;;;;14.38;11.65;;;17.30;33.20;;;;;;6254923;28;20053;-76
2021/05/07 15:32:34;;;;;;;93.35;64.28;;;17.20;33.60;;;;;;6253973;28;20056;-78
2021/05/07 15:35:36;;;;;;;39.88;25.10;;;17.30;33.10;;;;;;6255223;28;20046;-78
2021/05/07 15:38:37;;;;;;;80.13;56.35;;;17.50;33.30;;;;;;6256385;28;20099;-78
2021/05/07 15:41:39;;;;;;;77.20;53.15;;;17.40;33.20;;;;;;6255173;28;20135;-78
2021/05/07 15:44:41;;;;;;;42.72;32.03;;;17.30;32.20;;;;;;6237925;28;20493;-79
2021/05/07 15:47:43;;;;;;;37.13;32.10;;;17.10;32.00;;;;;;6229952;28;20840;-77
2021/05/07 15:50:44;;;;;;;11.80;10.60;;;16.90;32.80;;;;;;6228541;28;20499;-77
2021/05/07 15:53:46;;;;;;;11.23;9.25;;;16.60;34.00;;;;;;6228559;28;20109;-77